createdAt,value
2022-09-20T00:00:15.459Z,9.10
2022-09-20T00:03:05.804Z,6.50
2022-09-20T00:05:37.646Z,5.50
2022-09-20T00:08:10.415Z,5.10
2022-09-20T00:10:41.750Z,5.50
2022-09-20T00:13:14.929Z,6.10
2022-09-20T00:15:47.692Z,6.90
2022-09-20T00:18:17.923Z,6.10
2022-09-20T00:20:50.057Z,6.80
2022-09-20T00:23:20.649Z,7.60
2022-09-20T00:26:00.750Z,7.30
2022-09-20T00:28:34.120Z,6.00
2022-09-20T00:31:05.319Z,5.50
2022-09-20T00:33:53.301Z,6.30
2022-09-20T00:36:23.749Z,5.70
2022-09-20T00:39:02.432Z,6.00
2022-09-20T00:41:34.219Z,6.10
2022-09-20T00:44:05.232Z,5.00
2022-09-20T00:46:47.622Z,5.00
2022-09-20T00:49:27.529Z,5.40
2022-09-20T00:52:02.756Z,5.50
2022-09-20T00:54:33.637Z,7.90
2022-09-20T00:57:04.006Z,5.70
2022-09-20T00:59:36.174Z,7.80
2022-09-20T01:02:12.629Z,6.10
2022-09-20T01:04:48.239Z,5.80
2022-09-20T01:07:23.670Z,5.40
2022-09-20T01:09:54.276Z,4.50
2022-09-20T01:12:29.428Z,5.60
2022-09-20T01:15:00.902Z,3.60
2022-09-20T01:17:36.004Z,5.40
2022-09-20T01:20:16.267Z,5.40
2022-09-20T01:23:20.860Z,6.40
2022-09-20T01:26:33.037Z,3.40
2022-09-20T01:29:40.102Z,4.70
2022-09-20T01:32:14.860Z,5.50
2022-09-20T01:34:53.377Z,6.00
2022-09-20T01:37:48.914Z,4.90
2022-09-20T01:40:49.281Z,4.90
2022-09-20T01:43:55.001Z,5.10
2022-09-20T01:46:28.638Z,5.10
2022-09-20T01:49:27.739Z,4.30
2022-09-20T01:52:22.419Z,5.40
2022-09-20T01:55:06.933Z,5.90
2022-09-20T01:57:37.115Z,5.40
2022-09-20T02:00:40.992Z,7.50
2022-09-20T02:03:14.266Z,5.90
2022-09-20T02:06:06.312Z,5.90
2022-09-20T02:08:49.878Z,5.60
2022-09-20T02:11:31.353Z,6.10
2022-09-20T02:14:22.579Z,6.70
2022-09-20T02:17:02.178Z,6.40
2022-09-20T02:19:48.829Z,4.70
2022-09-20T02:22:31.748Z,4.30
2022-09-20T02:25:31.578Z,3.70
2022-09-20T02:28:26.829Z,4.30
2022-09-20T02:31:16.057Z,8.10
2022-09-20T02:34:13.393Z,4.90
2022-09-20T02:37:16.204Z,7.50
2022-09-20T02:40:22.265Z,5.30
2022-09-20T02:43:10.800Z,4.30
2022-09-20T02:45:57.260Z,3.70
2022-09-20T02:48:38.618Z,6.10
2022-09-20T02:51:22.788Z,6.00
2022-09-20T02:54:30.227Z,4.40
2022-09-20T02:57:51.509Z,4.30
2022-09-20T03:00:26.658Z,2.90
2022-09-20T03:03:19.511Z,3.40
2022-09-20T03:06:16.599Z,4.70
2022-09-20T03:09:00.616Z,4.10
2022-09-20T03:11:46.227Z,5.20
2022-09-20T03:14:30.122Z,4.10
2022-09-20T03:17:25.197Z,5.50
2022-09-20T03:20:10.248Z,2.90
2022-09-20T03:22:55.601Z,4.90
2022-09-20T03:25:44.593Z,4.20
2022-09-20T03:28:52.389Z,5.10
2022-09-20T03:31:41.356Z,5.20
2022-09-20T03:34:36.728Z,3.90
2022-09-20T03:37:43.767Z,6.30
2022-09-20T03:40:47.862Z,3.80
2022-09-20T03:43:44.212Z,5.20
2022-09-20T03:46:23.597Z,6.20
2022-09-20T03:49:16.720Z,3.40
2022-09-20T03:52:14.719Z,3.30
2022-09-20T03:55:22.972Z,3.70
2022-09-20T03:58:33.007Z,4.80
2022-09-20T04:01:38.252Z,6.40
2022-09-20T04:04:29.979Z,3.30
2022-09-20T04:07:20.700Z,3.80
2022-09-20T04:09:56.619Z,4.10
2022-09-20T04:13:01.700Z,4.40
2022-09-20T04:16:08.262Z,3.90
2022-09-20T04:19:06.229Z,3.50
2022-09-20T04:21:55.465Z,4.70
2022-09-20T04:24:33.696Z,5.50
2022-09-20T04:27:31.063Z,4.00
2022-09-20T04:30:08.408Z,4.90
2022-09-20T04:32:51.052Z,4.00
2022-09-20T04:35:38.338Z,4.10
2022-09-20T04:38:14.852Z,3.60
2022-09-20T04:41:16.977Z,5.80
2022-09-20T04:43:58.948Z,4.80
2022-09-20T04:47:07.386Z,3.90
2022-09-20T04:49:55.560Z,4.80
2022-09-20T04:53:00.357Z,5.30
2022-09-20T04:55:52.669Z,5.30
2022-09-20T04:58:36.607Z,5.40
2022-09-20T05:05:41.595Z,5.90
2022-09-20T05:08:36.329Z,5.40
2022-09-20T05:11:31.067Z,6.10
2022-09-20T05:14:41.432Z,5.70
2022-09-20T05:17:34.635Z,4.20
2022-09-20T05:20:07.848Z,6.70
2022-09-20T05:23:03.030Z,5.20
2022-09-20T05:26:03.885Z,6.90
2022-09-20T05:28:51.294Z,7.80
2022-09-20T05:31:46.036Z,6.20
2022-09-20T05:34:24.707Z,6.90
2022-09-20T05:37:12.747Z,7.50
2022-09-20T05:40:01.485Z,4.50
2022-09-20T05:42:54.800Z,5.70
2022-09-20T05:45:49.644Z,6.00
2022-09-20T05:48:59.006Z,5.40
2022-09-20T05:51:46.159Z,4.50
2022-09-20T05:54:44.738Z,4.90
2022-09-20T05:57:38.237Z,4.80
2022-09-20T06:00:28.288Z,6.00
2022-09-20T06:03:27.897Z,4.60
2022-09-20T06:06:06.660Z,4.30
2022-09-20T06:08:53.911Z,5.40
2022-09-20T06:11:50.739Z,5.70
2022-09-20T06:14:29.366Z,8.80
2022-09-20T06:17:32.053Z,5.00
2022-09-20T06:20:32.798Z,4.30
2022-09-20T06:23:06.616Z,7.50
2022-09-20T06:25:45.889Z,5.70
2022-09-20T06:28:22.044Z,5.00
2022-09-20T06:30:55.108Z,3.80
2022-09-20T06:33:28.757Z,4.50
2022-09-20T06:36:33.601Z,4.30
2022-09-20T06:40:02.923Z,4.20
2022-09-20T06:42:33.608Z,4.40
2022-09-20T06:45:04.056Z,6.90
2022-09-20T06:47:38.541Z,5.00
2022-09-20T06:50:09.687Z,4.40
2022-09-20T06:52:45.256Z,3.10
2022-09-20T06:55:29.330Z,2.80
2022-09-20T06:58:00.239Z,3.80
2022-09-20T07:00:30.644Z,2.90
2022-09-20T07:03:00.780Z,3.90
2022-09-20T07:05:31.400Z,5.10
2022-09-20T07:08:02.559Z,3.60
2022-09-20T07:10:33.329Z,2.70
2022-09-20T07:13:06.608Z,2.90
2022-09-20T07:15:37.053Z,3.00
2022-09-20T07:18:08.152Z,5.10
2022-09-20T07:20:38.842Z,4.70
2022-09-20T07:23:09.199Z,3.90
2022-09-20T07:25:39.804Z,4.90
2022-09-20T07:28:09.920Z,4.60
2022-09-20T07:30:40.589Z,4.70
2022-09-20T07:33:11.411Z,3.70
2022-09-20T07:35:42.026Z,3.90
2022-09-20T07:41:51.102Z,3.90
2022-09-20T07:49:08.581Z,3.40
2022-09-20T07:53:10.961Z,3.90
2022-09-20T08:01:26.374Z,4.40
2022-09-20T08:03:57.671Z,3.40
2022-09-20T08:06:28.125Z,4.00
2022-09-20T08:14:11.799Z,3.10
2022-09-20T08:16:45.103Z,2.70
2022-09-20T08:19:21.287Z,6.10
2022-09-20T08:21:53.759Z,2.10
2022-09-20T08:24:26.626Z,2.90
2022-09-20T08:26:57.251Z,3.40
2022-09-20T08:29:27.718Z,3.20
2022-09-20T08:31:58.660Z,3.50
2022-09-20T08:34:28.941Z,5.20
2022-09-20T08:36:59.924Z,2.30
2022-09-20T08:42:28.036Z,3.00
2022-09-20T08:45:03.350Z,2.00
2022-09-20T08:47:38.658Z,2.80
2022-09-20T08:50:17.580Z,2.30
2022-09-20T08:52:50.988Z,2.70
2022-09-20T08:55:37.058Z,4.30
2022-09-20T08:58:09.082Z,2.70
2022-09-20T09:00:41.799Z,2.30
2022-09-20T09:03:17.950Z,1.60
2022-09-20T09:10:55.086Z,2.60
2022-09-20T09:13:37.276Z,2.10
2022-09-20T09:16:27.283Z,2.20
2022-09-20T09:19:20.724Z,2.70
2022-09-20T09:21:54.069Z,2.40
2022-09-20T09:24:26.567Z,2.50
2022-09-20T09:27:19.940Z,3.50
2022-09-20T09:30:00.154Z,1.50
2022-09-20T09:32:33.291Z,1.70
2022-09-20T09:35:27.269Z,1.40
2022-09-20T09:38:02.915Z,2.80
2022-09-20T09:40:35.032Z,3.00
2022-09-20T09:43:06.549Z,1.90
2022-09-20T09:45:41.286Z,1.30
2022-09-20T09:48:32.043Z,2.20
2022-09-20T09:51:17.337Z,1.00
2022-09-20T09:53:50.792Z,2.80
2022-09-20T09:56:50.520Z,1.60
2022-09-20T10:02:05.929Z,1.50
2022-09-20T10:09:11.326Z,1.90
2022-09-20T10:12:06.602Z,2.80
2022-09-20T10:14:38.664Z,2.80
2022-09-20T10:17:22.955Z,1.10
2022-09-20T10:20:18.097Z,1.60
2022-09-20T10:28:05.642Z,1.70
2022-09-20T10:31:06.851Z,1.40
2022-09-20T10:34:12.629Z,2.60
2022-09-20T10:36:54.734Z,1.40
2022-09-20T10:39:35.823Z,3.10
2022-09-20T10:42:56.510Z,1.50
2022-09-20T10:45:59.594Z,2.20
2022-09-20T10:48:51.999Z,3.40
2022-09-20T10:54:32.985Z,2.70
2022-09-20T10:57:26.439Z,1.90
2022-09-20T11:00:18.197Z,1.10
2022-09-20T11:02:59.562Z,2.00
2022-09-20T11:05:38.914Z,1.10
2022-09-20T11:08:28.119Z,2.10
2022-09-20T11:11:23.713Z,0.80
2022-09-20T11:14:14.345Z,0.90
2022-09-20T11:17:03.789Z,1.30
2022-09-20T11:19:56.935Z,1.20
2022-09-20T11:24:07.012Z,1.40
2022-09-20T11:29:36.132Z,0.60
2022-09-20T11:32:43.618Z,2.20
2022-09-20T11:35:15.072Z,1.10
2022-09-20T11:38:00.217Z,0.90
2022-09-20T11:40:41.770Z,1.10
2022-09-20T11:43:15.258Z,0.90
2022-09-20T11:45:49.682Z,0.70
2022-09-20T11:48:31.939Z,0.60
2022-09-20T11:51:13.919Z,0.60
2022-09-20T11:54:13.239Z,0.60
2022-09-20T11:56:51.606Z,1.00
2022-09-20T11:59:54.279Z,0.90
2022-09-20T12:02:47.808Z,0.80
2022-09-20T12:05:38.428Z,0.80
2022-09-20T12:08:29.469Z,1.50
2022-09-20T12:15:33.005Z,1.00
2022-09-20T12:18:27.801Z,1.60
2022-09-20T12:20:57.792Z,0.90
2022-09-20T12:23:40.773Z,2.20
2022-09-20T12:26:38.615Z,0.60
2022-09-20T12:29:27.251Z,0.70
2022-09-20T12:32:02.267Z,0.60
2022-09-20T12:34:38.295Z,1.80
2022-09-20T12:37:11.428Z,1.70
2022-09-20T12:39:52.250Z,1.60
2022-09-20T12:42:35.142Z,0.60
2022-09-20T12:45:20.905Z,1.50
2022-09-20T12:47:58.333Z,0.60
2022-09-20T12:50:47.058Z,1.30
2022-09-20T12:56:08.230Z,1.20
2022-09-20T12:59:05.982Z,1.40
2022-09-20T13:02:39.141Z,0.50
2022-09-20T13:05:36.718Z,0.80
2022-09-20T13:08:27.813Z,1.90
2022-09-20T13:11:13.028Z,0.60
2022-09-20T13:13:57.658Z,0.70
2022-09-20T13:16:39.485Z,0.80
2022-09-20T13:19:23.340Z,1.10
2022-09-20T13:22:02.510Z,0.80
2022-09-20T13:24:41.327Z,0.50
2022-09-20T13:27:19.881Z,0.90
2022-09-20T13:29:51.487Z,0.50
2022-09-20T13:32:27.889Z,1.00
2022-09-20T13:35:24.639Z,2.00
2022-09-20T13:37:58.284Z,1.20
2022-09-20T13:40:35.453Z,1.30
2022-09-20T13:43:29.940Z,1.00
2022-09-20T13:46:35.789Z,2.50
2022-09-20T13:49:21.689Z,3.30
2022-09-20T13:51:52.908Z,2.10
2022-09-20T13:54:32.405Z,1.90
2022-09-20T13:57:07.142Z,2.80
2022-09-20T13:59:47.141Z,3.60
2022-09-20T14:02:29.890Z,3.90
2022-09-20T14:05:07.659Z,5.80
2022-09-20T14:07:38.226Z,3.90
2022-09-20T14:10:32.235Z,5.30
2022-09-20T14:13:07.917Z,6.40
2022-09-20T14:15:43.010Z,6.10
2022-09-20T14:18:20.391Z,5.20
2022-09-20T14:20:50.937Z,5.80
2022-09-20T14:23:33.402Z,4.50
2022-09-20T14:26:18.796Z,5.60
2022-09-20T14:28:50.295Z,5.70
2022-09-20T14:31:27.314Z,6.50
2022-09-20T14:34:01.833Z,5.10
2022-09-20T14:36:33.389Z,3.70
2022-09-20T14:39:07.154Z,5.50
2022-09-20T14:41:42.939Z,5.10
2022-09-20T14:44:31.235Z,5.60
2022-09-20T14:47:14.875Z,6.10
2022-09-20T14:49:48.058Z,4.70
2022-09-20T14:52:37.955Z,4.80
2022-09-20T14:55:15.379Z,3.10
2022-09-20T14:57:48.707Z,3.40
2022-09-20T15:00:21.119Z,2.40
2022-09-20T15:02:52.508Z,2.60
2022-09-20T15:05:24.514Z,3.40
2022-09-20T15:07:56.938Z,1.90
2022-09-20T15:10:27.306Z,4.90
2022-09-20T15:12:57.911Z,2.20
2022-09-20T15:15:28.915Z,1.40
2022-09-20T15:17:59.200Z,2.90
2022-09-20T15:20:30.810Z,3.80
2022-09-20T15:23:02.360Z,1.80
2022-09-20T15:25:32.912Z,1.60
2022-09-20T15:28:04.489Z,2.00
2022-09-20T15:30:35.530Z,2.70
2022-09-20T15:33:05.813Z,4.30
2022-09-20T15:35:37.349Z,2.80
2022-09-20T15:38:10.642Z,0.90
2022-09-20T15:40:47.848Z,1.30
2022-09-20T15:43:22.410Z,2.50
2022-09-20T15:46:00.689Z,1.80
2022-09-20T15:48:32.558Z,1.20
2022-09-20T15:51:11.687Z,1.40
2022-09-20T15:53:49.736Z,3.50
2022-09-20T15:56:53.832Z,2.10
2022-09-20T15:59:24.832Z,2.90
2022-09-20T16:01:55.119Z,1.90
2022-09-20T16:04:27.087Z,1.80
2022-09-20T16:06:57.482Z,3.30
2022-09-20T16:14:33.439Z,3.00
2022-09-20T16:22:11.140Z,3.00
2022-09-20T16:24:44.471Z,2.90
2022-09-20T16:28:47.636Z,3.00
2022-09-20T16:31:47.201Z,2.60
2022-09-20T16:34:21.028Z,1.90
2022-09-20T16:36:54.557Z,1.80
2022-09-20T16:39:27.891Z,2.00
2022-09-20T16:47:07.916Z,2.70
2022-09-20T16:49:39.103Z,1.80
2022-09-20T16:52:14.954Z,3.10
2022-09-20T16:54:45.428Z,2.80
2022-09-20T16:57:17.914Z,2.50
2022-09-20T16:59:52.212Z,2.50
2022-09-20T17:02:22.392Z,3.20
2022-09-20T17:04:57.879Z,3.00
2022-09-20T17:07:29.180Z,4.20
2022-09-20T17:10:01.917Z,2.70
2022-09-20T17:12:34.317Z,1.90
2022-09-20T17:15:04.686Z,4.80
2022-09-20T17:17:36.380Z,3.70
2022-09-20T17:20:08.376Z,2.50
2022-09-20T17:22:38.970Z,2.80
2022-09-20T17:25:10.521Z,5.30
2022-09-20T17:27:41.744Z,4.00
2022-09-20T17:30:18.000Z,2.50
2022-09-20T17:32:50.779Z,3.60
2022-09-20T17:35:20.980Z,2.70
2022-09-20T17:37:54.666Z,3.40
2022-09-20T17:40:25.911Z,6.00
2022-09-20T17:42:57.728Z,4.40
2022-09-20T17:45:28.068Z,4.40
2022-09-20T17:47:58.655Z,5.00
2022-09-20T17:50:29.338Z,4.70
2022-09-20T17:52:59.637Z,3.50
2022-09-20T17:55:31.656Z,3.70
2022-09-20T17:58:02.289Z,4.50
2022-09-20T18:00:33.229Z,4.10
2022-09-20T18:03:06.857Z,3.50
2022-09-20T18:05:37.077Z,3.00
2022-09-20T18:08:32.488Z,5.90
2022-09-20T18:11:40.793Z,3.40
2022-09-20T18:14:17.722Z,3.80
2022-09-20T18:22:09.539Z,3.20
2022-09-20T18:24:40.316Z,3.50
2022-09-20T18:27:12.838Z,2.40
2022-09-20T18:29:44.676Z,3.10
2022-09-20T18:32:16.878Z,3.90
2022-09-20T18:34:52.037Z,2.50
2022-09-20T18:37:23.662Z,3.30
2022-09-20T18:39:54.485Z,4.80
2022-09-20T18:42:28.156Z,3.00
2022-09-20T18:45:02.450Z,3.40
2022-09-20T18:47:37.929Z,3.60
2022-09-20T18:50:10.681Z,4.00
2022-09-20T18:52:44.181Z,2.90
2022-09-20T18:55:16.519Z,3.30
2022-09-20T18:57:49.821Z,3.70
2022-09-20T19:00:21.543Z,4.10
2022-09-20T19:03:10.391Z,2.90
2022-09-20T19:05:56.195Z,3.40
2022-09-20T19:08:54.527Z,3.50
2022-09-20T19:11:58.343Z,4.50
2022-09-20T19:14:44.453Z,4.40
2022-09-20T19:27:06.284Z,5.20
2022-09-20T19:29:40.050Z,5.50
2022-09-20T19:32:21.574Z,5.70
2022-09-20T19:35:02.117Z,5.60
2022-09-20T19:37:38.455Z,4.70
2022-09-20T19:40:20.481Z,4.20
2022-09-20T19:43:26.580Z,5.30
2022-09-20T19:46:00.706Z,4.90
2022-09-20T19:48:37.275Z,5.80
2022-09-20T19:51:16.167Z,4.80
2022-09-20T19:53:47.335Z,4.80
2022-09-20T19:56:30.029Z,7.40
2022-09-20T19:59:01.633Z,5.50
2022-09-20T20:01:35.290Z,5.90
2022-09-20T20:04:07.376Z,5.90
2022-09-20T20:12:16.287Z,6.20
2022-09-20T20:15:14.173Z,4.70
2022-09-20T20:18:03.443Z,6.80
2022-09-20T20:20:57.038Z,5.70
2022-09-20T20:23:41.834Z,5.20
2022-09-20T20:26:28.622Z,5.40
2022-09-20T20:29:09.769Z,6.60
2022-09-20T20:31:42.669Z,8.60
2022-09-20T20:34:18.598Z,6.40
2022-09-20T20:36:57.231Z,7.60
2022-09-20T20:39:37.910Z,5.60
2022-09-20T20:46:59.624Z,5.30
2022-09-20T20:49:34.687Z,6.20
2022-09-20T20:52:06.397Z,5.90
2022-09-20T20:54:36.606Z,6.30
2022-09-20T20:57:07.867Z,5.30
2022-09-20T20:59:40.449Z,6.90
2022-09-20T21:02:10.893Z,5.50
2022-09-20T21:04:41.639Z,7.40
2022-09-20T21:07:11.840Z,5.80
2022-09-20T21:09:42.099Z,6.50
2022-09-20T21:12:12.387Z,6.40
2022-09-20T21:14:44.945Z,5.30
2022-09-20T21:17:15.483Z,5.10
2022-09-20T21:19:45.578Z,6.00
2022-09-20T21:26:48.872Z,5.60
2022-09-20T21:29:22.040Z,4.80
2022-09-20T21:31:52.684Z,6.20
2022-09-20T21:34:24.980Z,5.40
2022-09-20T21:36:55.280Z,8.40
2022-09-20T21:39:25.531Z,4.70
2022-09-20T21:41:57.769Z,7.20
2022-09-20T21:44:28.407Z,4.10
2022-09-20T21:46:58.631Z,5.90
2022-09-20T21:49:28.832Z,4.60
2022-09-20T21:51:59.645Z,4.40
2022-09-20T21:58:24.439Z,5.10
2022-09-20T22:01:15.018Z,5.20
2022-09-20T22:03:47.627Z,7.60
2022-09-20T22:06:20.380Z,5.30
2022-09-20T22:09:02.110Z,5.00
2022-09-20T22:11:39.211Z,3.90
2022-09-20T22:14:10.746Z,5.20
2022-09-20T22:16:42.743Z,5.80
2022-09-20T22:19:15.199Z,5.20
2022-09-20T22:22:21.151Z,3.90
2022-09-20T22:25:03.248Z,5.80
2022-09-20T22:27:33.387Z,5.20
2022-09-20T22:30:05.089Z,4.70
2022-09-20T22:32:35.601Z,5.50
2022-09-20T22:35:05.988Z,5.30
2022-09-20T22:37:36.093Z,7.10
2022-09-20T22:40:06.774Z,5.10
2022-09-20T22:42:39.235Z,5.00
2022-09-20T22:45:11.909Z,5.60
2022-09-20T22:47:42.190Z,5.00
2022-09-20T22:50:12.378Z,5.10
2022-09-20T22:52:42.551Z,8.60
2022-09-20T22:55:12.704Z,5.70
2022-09-20T22:57:43.081Z,7.30
2022-09-20T23:00:13.891Z,8.70
2022-09-20T23:02:44.157Z,5.70
2022-09-20T23:05:14.397Z,6.00
2022-09-20T23:07:44.879Z,5.40
2022-09-20T23:10:15.031Z,4.00
2022-09-20T23:12:45.328Z,5.50
2022-09-20T23:15:16.379Z,5.40
2022-09-20T23:17:47.511Z,5.90
2022-09-20T23:20:17.662Z,4.90
2022-09-20T23:22:47.840Z,4.70
2022-09-20T23:25:17.904Z,6.40
2022-09-20T23:32:48.657Z,4.90
2022-09-20T23:35:18.579Z,5.10
2022-09-20T23:38:24.704Z,4.10
2022-09-20T23:40:58.011Z,4.70
2022-09-20T23:43:28.430Z,4.70
2022-09-20T23:45:58.682Z,4.50
2022-09-20T23:48:29.344Z,4.50
2022-09-20T23:50:59.999Z,4.30
2022-09-20T23:53:30.555Z,3.90
2022-09-20T23:56:00.804Z,4.90
2022-09-20T23:58:31.040Z,3.70
